createdAt,value
2018-07-11T00:00:56.584Z,8.67
2018-07-11T00:03:45.343Z,8.47
2018-07-11T00:06:15.071Z,8.80
2018-07-11T00:08:43.456Z,8.70
2018-07-11T00:11:12.422Z,8.87
2018-07-11T00:13:42.338Z,8.60
2018-07-11T00:16:10.718Z,8.37
2018-07-11T00:18:39.104Z,8.07
2018-07-11T00:21:08.482Z,8.60
2018-07-11T00:23:36.921Z,8.07
2018-07-11T00:26:05.722Z,8.23
2018-07-11T00:28:34.226Z,8.43
2018-07-11T00:31:02.729Z,9.13
2018-07-11T00:33:31.450Z,8.13
2018-07-11T00:35:59.824Z,9.07
2018-07-11T00:38:29.210Z,8.83
2018-07-11T00:40:58.694Z,9.03
2018-07-11T00:43:27.832Z,8.37
2018-07-11T00:45:56.288Z,8.70
2018-07-11T00:48:24.743Z,8.30
2018-07-11T00:50:53.168Z,8.80
2018-07-11T00:53:22.616Z,9.13
2018-07-11T00:55:51.016Z,8.67
2018-07-11T00:58:26.026Z,9.50
2018-07-11T01:01:03.736Z,7.83
2018-07-11T01:03:32.510Z,9.20
2018-07-11T01:06:01.024Z,8.37
2018-07-11T01:08:29.823Z,8.63
2018-07-11T01:11:01.967Z,9.03
2018-07-11T01:13:30.621Z,8.87
2018-07-11T01:15:59.428Z,8.03
2018-07-11T01:18:28.010Z,7.90
2018-07-11T01:20:56.470Z,8.83
2018-07-11T01:23:24.870Z,7.93
2018-07-11T01:25:53.292Z,8.20
2018-07-11T01:28:21.758Z,8.60
2018-07-11T01:30:50.343Z,8.67
2018-07-11T01:33:18.786Z,8.17
2018-07-11T01:35:47.288Z,8.63
2018-07-11T01:38:15.754Z,8.40
2018-07-11T01:40:44.228Z,8.43
2018-07-11T01:43:12.667Z,8.60
2018-07-11T01:45:40.772Z,7.90
2018-07-11T01:48:09.163Z,8.33
2018-07-11T01:50:37.600Z,8.57
2018-07-11T01:53:05.743Z,8.40
2018-07-11T01:55:34.183Z,8.40
2018-07-11T01:58:02.649Z,8.70
2018-07-11T02:00:31.097Z,7.93
2018-07-11T02:02:59.181Z,8.00
2018-07-11T02:05:28.293Z,8.60
2018-07-11T02:07:56.843Z,8.80
2018-07-11T02:10:25.441Z,8.17
2018-07-11T02:12:53.506Z,8.13
2018-07-11T02:15:21.570Z,7.87
2018-07-11T02:17:50.687Z,8.30
2018-07-11T02:20:19.145Z,8.23
2018-07-11T02:22:52.003Z,8.57
2018-07-11T02:25:20.901Z,8.27
2018-07-11T02:27:49.919Z,8.13
2018-07-11T02:30:18.295Z,8.30
2018-07-11T02:32:46.740Z,8.03
2018-07-11T02:35:15.147Z,8.10
2018-07-11T02:37:43.225Z,8.37
2018-07-11T02:40:11.690Z,8.97
2018-07-11T02:42:40.055Z,8.80
2018-07-11T02:45:08.416Z,8.77
2018-07-11T02:47:43.648Z,8.67
2018-07-11T02:50:12.856Z,8.73
2018-07-11T02:52:41.535Z,9.07
2018-07-11T02:55:09.936Z,8.67
2018-07-11T02:57:38.384Z,8.47
2018-07-11T03:00:06.827Z,8.83
2018-07-11T03:02:35.889Z,9.23
2018-07-11T03:05:04.300Z,9.27
2018-07-11T03:07:32.740Z,8.37
2018-07-11T03:10:01.163Z,8.00
2018-07-11T03:12:29.517Z,8.50
2018-07-11T03:14:57.598Z,8.40
2018-07-11T03:17:25.998Z,8.03
2018-07-11T03:19:54.396Z,8.83
2018-07-11T03:22:22.856Z,8.07
2018-07-11T03:24:51.310Z,8.30
2018-07-11T03:27:19.392Z,8.50
2018-07-11T03:29:47.768Z,8.17
2018-07-11T03:32:16.398Z,7.63
2018-07-11T03:34:44.758Z,8.07
2018-07-11T03:37:13.175Z,7.97
2018-07-11T03:39:42.134Z,7.83
2018-07-11T03:42:10.522Z,8.00
2018-07-11T03:44:39.090Z,7.90
2018-07-11T03:47:07.474Z,7.73
2018-07-11T03:49:35.811Z,7.20
2018-07-11T03:52:04.184Z,7.63
2018-07-11T03:54:32.256Z,7.50
2018-07-11T03:57:00.305Z,8.60
2018-07-11T03:59:28.650Z,8.50
2018-07-11T04:01:57.066Z,7.50
2018-07-11T04:04:25.451Z,7.53
2018-07-11T04:06:53.497Z,8.13
2018-07-11T04:09:21.856Z,7.63
2018-07-11T04:11:50.199Z,7.63
2018-07-11T04:14:18.556Z,7.73
2018-07-11T04:16:46.916Z,7.63
2018-07-11T04:19:15.240Z,8.00
2018-07-11T04:21:43.441Z,7.67
2018-07-11T04:24:11.969Z,7.40
2018-07-11T04:26:40.448Z,7.43
2018-07-11T04:29:08.832Z,7.93
2018-07-11T04:31:37.245Z,7.70
2018-07-11T04:34:05.956Z,8.60
2018-07-11T04:36:35.255Z,7.87
2018-07-11T04:39:04.653Z,7.77
2018-07-11T04:41:33.059Z,8.17
2018-07-11T04:44:01.173Z,7.80
2018-07-11T04:46:29.607Z,7.77
2018-07-11T04:48:57.707Z,7.57
2018-07-11T04:51:26.130Z,6.93
2018-07-11T04:53:55.094Z,8.20
2018-07-11T04:56:23.873Z,7.37
2018-07-11T04:58:52.315Z,7.73
2018-07-11T05:01:20.609Z,7.63
2018-07-11T05:03:49.039Z,7.83
2018-07-11T05:06:17.445Z,7.53
2018-07-11T05:08:45.523Z,7.17
2018-07-11T05:11:13.674Z,7.13
2018-07-11T05:13:41.927Z,6.40
2018-07-11T05:16:10.379Z,6.90
2018-07-11T05:18:38.734Z,6.33
2018-07-11T05:21:06.785Z,5.87
2018-07-11T05:23:35.181Z,5.73
2018-07-11T05:26:03.565Z,5.93
2018-07-11T05:28:31.622Z,5.90
2018-07-11T05:30:59.709Z,5.90
2018-07-11T05:33:28.043Z,6.70
2018-07-11T05:35:56.506Z,6.20
2018-07-11T05:38:24.900Z,6.10
2018-07-11T05:40:53.283Z,6.50
2018-07-11T05:43:21.659Z,6.43
2018-07-11T05:45:50.053Z,6.13
2018-07-11T05:48:18.568Z,5.43
2018-07-11T05:50:46.780Z,5.00
2018-07-11T05:53:15.155Z,4.87
2018-07-11T05:55:43.592Z,3.87
2018-07-11T05:58:11.988Z,4.17
2018-07-11T06:00:40.345Z,4.20
2018-07-11T06:03:08.800Z,3.97
2018-07-11T06:05:37.190Z,4.37
2018-07-11T06:08:05.250Z,3.77
2018-07-11T06:10:33.399Z,4.10
2018-07-11T06:13:01.725Z,3.73
2018-07-11T06:15:30.176Z,4.10
2018-07-11T06:17:58.559Z,4.20
2018-07-11T06:20:26.892Z,4.20
2018-07-11T06:22:55.262Z,4.30
2018-07-11T06:25:23.639Z,3.67
2018-07-11T06:27:52.011Z,3.47
2018-07-11T06:30:20.414Z,3.50
2018-07-11T06:32:48.977Z,3.33
2018-07-11T06:35:17.356Z,3.03
2018-07-11T06:37:45.881Z,3.00
2018-07-11T06:40:14.331Z,2.93
2018-07-11T06:42:42.725Z,3.00
2018-07-11T06:45:11.149Z,2.87
2018-07-11T06:47:39.550Z,3.07
2018-07-11T06:50:09.757Z,3.17
2018-07-11T06:52:38.212Z,3.13
2018-07-11T06:55:06.604Z,2.90
2018-07-11T06:57:35.054Z,2.73
2018-07-11T07:00:10.057Z,2.80
2018-07-11T07:02:38.515Z,3.30
2018-07-11T07:05:06.979Z,3.30
2018-07-11T07:07:35.580Z,2.80
2018-07-11T07:10:03.990Z,3.00
2018-07-11T07:12:32.488Z,3.20
2018-07-11T07:15:00.851Z,2.90
2018-07-11T07:17:29.290Z,2.60
2018-07-11T07:19:57.710Z,2.90
2018-07-11T07:22:26.134Z,3.17
2018-07-11T07:24:54.566Z,3.03
2018-07-11T07:27:22.938Z,3.07
2018-07-11T07:29:51.324Z,2.93
2018-07-11T07:32:19.713Z,3.20
2018-07-11T07:34:48.192Z,3.30
2018-07-11T07:37:16.570Z,3.10
2018-07-11T07:39:45.220Z,2.93
2018-07-11T07:42:13.811Z,3.13
2018-07-11T07:44:42.254Z,2.70
2018-07-11T07:47:15.998Z,2.83
2018-07-11T07:49:45.422Z,3.10
2018-07-11T07:52:13.872Z,2.83
2018-07-11T07:54:42.382Z,2.90
2018-07-11T07:57:10.900Z,2.90
2018-07-11T07:59:39.389Z,2.93
2018-07-11T08:02:07.879Z,2.90
2018-07-11T08:04:36.349Z,2.77
2018-07-11T08:07:05.113Z,3.20
2018-07-11T08:09:33.360Z,3.20
2018-07-11T08:12:02.000Z,2.83
2018-07-11T08:14:30.376Z,3.07
2018-07-11T08:16:58.787Z,3.20
2018-07-11T08:19:27.215Z,2.77
2018-07-11T08:21:56.387Z,2.93
2018-07-11T08:24:36.037Z,2.87
2018-07-11T08:27:15.874Z,2.43
2018-07-11T08:32:02.228Z,3.10
2018-07-11T08:35:46.471Z,2.67
2018-07-11T08:38:34.727Z,2.67
2018-07-11T08:43:19.819Z,2.63
2018-07-11T08:48:32.765Z,2.30
2018-07-11T08:51:26.994Z,2.27
2018-07-11T08:53:59.470Z,2.70
2018-07-11T08:56:33.139Z,2.50
2018-07-11T08:59:11.908Z,2.43
2018-07-11T09:02:23.799Z,2.97
2018-07-11T09:04:57.454Z,2.50
2018-07-11T09:08:39.335Z,2.60
2018-07-11T09:11:17.221Z,2.53
2018-07-11T09:14:59.761Z,2.60
2018-07-11T09:17:55.114Z,2.43
2018-07-11T09:20:34.651Z,2.60
2018-07-11T09:25:11.658Z,2.60
2018-07-11T09:27:40.077Z,2.70
2018-07-11T09:30:08.547Z,2.63
2018-07-11T09:32:36.949Z,2.80
2018-07-11T09:35:05.320Z,2.50
2018-07-11T09:37:33.813Z,2.67
2018-07-11T09:40:02.312Z,2.70
2018-07-11T09:42:30.688Z,2.63
2018-07-11T09:44:59.380Z,2.53
2018-07-11T09:47:28.994Z,2.60
2018-07-11T09:49:57.329Z,2.50
2018-07-11T09:52:25.698Z,2.90
2018-07-11T09:54:54.160Z,3.20
2018-07-11T09:57:23.412Z,2.90
2018-07-11T09:59:51.906Z,2.57
2018-07-11T10:02:20.354Z,2.60
2018-07-11T10:04:48.794Z,2.70
2018-07-11T10:07:17.452Z,2.80
2018-07-11T10:09:45.520Z,2.50
2018-07-11T10:12:13.614Z,2.40
2018-07-11T10:14:42.013Z,2.80
2018-07-11T10:17:20.449Z,2.90
2018-07-11T10:19:48.840Z,2.60
2018-07-11T10:22:18.141Z,2.60
2018-07-11T10:24:46.531Z,2.80
2018-07-11T10:27:14.989Z,2.60
2018-07-11T10:29:43.425Z,2.90
2018-07-11T10:32:11.822Z,2.63
2018-07-11T10:34:41.218Z,2.67
2018-07-11T10:37:09.638Z,2.50
2018-07-11T10:39:38.048Z,2.63
2018-07-11T10:42:07.088Z,2.70
2018-07-11T10:44:35.875Z,2.70
2018-07-11T10:47:07.237Z,2.47
2018-07-11T10:49:35.684Z,2.57
2018-07-11T10:52:04.122Z,2.70
2018-07-11T10:54:32.190Z,2.53
2018-07-11T10:57:00.379Z,2.77
2018-07-11T10:59:29.817Z,3.20
2018-07-11T11:01:57.930Z,2.80
2018-07-11T11:04:26.511Z,2.73
2018-07-11T11:06:55.473Z,2.50
2018-07-11T11:09:23.991Z,2.80
2018-07-11T11:11:52.407Z,2.80
2018-07-11T11:14:20.991Z,2.97
2018-07-11T11:16:50.060Z,2.90
2018-07-11T11:19:18.206Z,2.67
2018-07-11T11:21:46.643Z,2.93
2018-07-11T11:24:15.055Z,3.07
2018-07-11T11:26:43.462Z,3.37
2018-07-11T11:29:13.415Z,4.03
2018-07-11T11:31:41.903Z,3.30
2018-07-11T11:34:10.348Z,3.70
2018-07-11T11:36:38.779Z,3.40
2018-07-11T11:39:07.419Z,3.50
2018-07-11T11:41:36.257Z,3.47
2018-07-11T11:44:04.291Z,3.33
2018-07-11T11:46:32.717Z,3.13
2018-07-11T11:49:01.076Z,3.60
2018-07-11T11:51:29.493Z,3.80
2018-07-11T11:53:57.635Z,3.90
2018-07-11T11:56:26.045Z,3.63
2018-07-11T11:58:54.512Z,3.97
2018-07-11T12:01:23.177Z,4.07
2018-07-11T12:03:51.631Z,4.20
2018-07-11T12:06:20.103Z,3.87
2018-07-11T12:08:48.519Z,3.83
2018-07-11T12:11:16.973Z,3.90
2018-07-11T12:13:45.410Z,4.10
2018-07-11T12:16:14.376Z,4.40
2018-07-11T12:18:42.798Z,4.20
2018-07-11T12:21:11.280Z,4.23
2018-07-11T12:23:39.736Z,3.80
2018-07-11T12:26:08.942Z,4.20
2018-07-11T12:28:37.090Z,4.03
2018-07-11T12:31:05.718Z,4.03
2018-07-11T12:33:34.192Z,4.00
2018-07-11T12:36:02.827Z,3.97
2018-07-11T12:38:31.324Z,3.83
2018-07-11T12:40:59.876Z,4.10
2018-07-11T12:43:28.834Z,4.30
2018-07-11T12:45:57.590Z,3.97
2018-07-11T12:48:31.600Z,3.80
2018-07-11T12:50:59.738Z,4.20
2018-07-11T12:53:28.655Z,4.10
2018-07-11T12:55:57.094Z,4.37
2018-07-11T12:58:26.279Z,4.23
2018-07-11T13:00:55.375Z,4.20
2018-07-11T13:03:23.848Z,3.93
2018-07-11T13:05:52.332Z,4.30
2018-07-11T13:08:21.878Z,4.50
2018-07-11T13:10:50.844Z,4.57
2018-07-11T13:13:19.858Z,4.10
2018-07-11T13:15:48.696Z,4.00
2018-07-11T13:18:17.391Z,4.10
2018-07-11T13:20:45.772Z,4.40
2018-07-11T13:23:14.137Z,3.67
2018-07-11T13:25:42.643Z,4.00
2018-07-11T13:28:10.931Z,4.10
2018-07-11T13:30:39.330Z,4.27
2018-07-11T13:33:07.752Z,5.47
2018-07-11T13:35:36.138Z,4.17
2018-07-11T13:38:04.636Z,5.00
2018-07-11T13:40:33.074Z,4.33
2018-07-11T13:43:02.050Z,4.27
2018-07-11T13:45:30.141Z,3.70
2018-07-11T13:48:01.554Z,3.63
2018-07-11T13:50:30.110Z,3.90
2018-07-11T13:52:59.447Z,3.17
2018-07-11T13:55:28.646Z,3.70
2018-07-11T13:57:57.829Z,3.73
2018-07-11T14:00:26.334Z,3.80
2018-07-11T14:02:54.430Z,4.00
2018-07-11T14:05:23.176Z,3.30
2018-07-11T14:07:51.696Z,3.30
2018-07-11T14:10:20.643Z,3.50
2018-07-11T14:12:49.085Z,3.20
2018-07-11T14:15:17.709Z,3.30
2018-07-11T14:17:46.143Z,3.37
2018-07-11T14:20:14.600Z,3.00
2018-07-11T14:22:43.082Z,3.23
2018-07-11T14:25:11.538Z,3.07
2018-07-11T14:27:44.943Z,3.20
2018-07-11T14:30:13.433Z,3.27
2018-07-11T14:32:48.903Z,3.37
2018-07-11T14:35:17.977Z,3.10
2018-07-11T14:37:47.437Z,3.10
2018-07-11T14:40:15.853Z,3.40
2018-07-11T14:42:44.948Z,3.33
2018-07-11T14:45:13.807Z,3.33
2018-07-11T14:47:47.427Z,3.63
2018-07-11T14:50:15.630Z,3.77
2018-07-11T14:52:44.087Z,3.70
2018-07-11T14:55:12.655Z,4.13
2018-07-11T14:57:40.766Z,4.00
2018-07-11T15:00:09.188Z,4.20
2018-07-11T15:02:37.664Z,4.53
2018-07-11T15:05:06.442Z,4.47
2018-07-11T15:07:34.969Z,4.80
2018-07-11T15:10:03.434Z,5.43
2018-07-11T15:12:31.534Z,4.67
2018-07-11T15:15:00.343Z,4.87
2018-07-11T15:17:29.684Z,5.03
2018-07-11T15:19:58.126Z,5.50
2018-07-11T15:22:26.938Z,4.90
2018-07-11T15:24:56.025Z,4.60
2018-07-11T15:27:24.892Z,5.30
2018-07-11T15:29:53.333Z,5.80
2018-07-11T15:32:21.449Z,5.50
2018-07-11T15:34:49.914Z,5.23
2018-07-11T15:37:18.360Z,5.83
2018-07-11T15:39:46.533Z,5.43
2018-07-11T15:42:15.030Z,5.67
2018-07-11T15:44:43.530Z,5.67
2018-07-11T15:47:12.679Z,5.20
2018-07-11T15:49:41.133Z,5.00
2018-07-11T15:52:10.612Z,4.90
2018-07-11T15:54:40.068Z,5.23
2018-07-11T15:57:08.197Z,4.70
2018-07-11T15:59:43.859Z,4.40
2018-07-11T16:02:12.374Z,4.50
2018-07-11T16:04:41.022Z,4.70
2018-07-11T16:07:10.254Z,4.60
2018-07-11T16:09:42.654Z,4.67
2018-07-11T16:12:11.257Z,4.70
2018-07-11T16:14:39.721Z,4.30
2018-07-11T16:17:08.161Z,3.87
2018-07-11T16:19:36.617Z,4.03
2018-07-11T16:22:05.100Z,4.17
2018-07-11T16:24:34.103Z,3.57
2018-07-11T16:27:02.564Z,4.07
2018-07-11T16:29:31.061Z,4.60
2018-07-11T16:31:59.655Z,4.93
2018-07-11T16:34:28.075Z,4.50
2018-07-11T16:36:56.449Z,4.53
2018-07-11T16:39:24.913Z,4.40
2018-07-11T16:41:53.941Z,5.13
2018-07-11T16:44:22.393Z,5.07
2018-07-11T16:46:50.859Z,4.77
2018-07-11T16:49:19.350Z,5.50
2018-07-11T16:51:49.042Z,5.40
2018-07-11T16:54:17.152Z,5.10
2018-07-11T16:56:45.599Z,5.10
2018-07-11T16:59:15.103Z,4.30
2018-07-11T17:01:44.305Z,4.80
2018-07-11T17:04:13.885Z,5.07
2018-07-11T17:06:42.454Z,5.10
2018-07-11T17:09:11.415Z,5.73
2018-07-11T17:11:40.869Z,5.53
2018-07-11T17:14:09.413Z,4.83
2018-07-11T17:16:44.599Z,5.13
2018-07-11T17:19:15.023Z,5.07
2018-07-11T17:21:49.650Z,5.53
2018-07-11T17:24:18.980Z,5.13
2018-07-11T17:26:49.589Z,5.27
2018-07-11T17:29:21.969Z,4.60
2018-07-11T17:31:52.369Z,4.60
2018-07-11T17:34:21.574Z,4.50
2018-07-11T17:36:52.741Z,4.70
2018-07-11T17:39:21.139Z,4.90
2018-07-11T17:41:49.604Z,4.43
2018-07-11T17:44:20.530Z,4.83
2018-07-11T17:46:48.975Z,4.53
2018-07-11T17:49:27.586Z,5.33
2018-07-11T17:52:04.702Z,4.47
2018-07-11T17:55:12.705Z,4.73
2018-07-11T17:57:49.666Z,4.27
2018-07-11T18:00:30.980Z,4.63
2018-07-11T18:03:36.071Z,4.50
2018-07-11T18:06:15.052Z,4.30
2018-07-11T18:08:52.332Z,4.50
2018-07-11T18:11:20.978Z,4.63
2018-07-11T18:13:53.161Z,4.23
2018-07-11T18:16:51.940Z,4.67
2018-07-11T18:19:29.496Z,4.03
2018-07-11T18:22:03.896Z,4.60
2018-07-11T18:26:47.452Z,4.67
2018-07-11T18:30:26.450Z,3.93
2018-07-11T18:35:09.889Z,3.97
2018-07-11T18:37:50.554Z,3.60
2018-07-11T18:40:18.910Z,4.70
2018-07-11T18:43:54.324Z,3.80
2018-07-11T18:47:33.403Z,4.03
2018-07-11T18:50:13.414Z,3.97
2018-07-11T18:52:52.513Z,3.63
2018-07-11T18:55:34.220Z,3.67
2018-07-11T18:58:11.964Z,4.03
2018-07-11T19:00:43.632Z,3.77
2018-07-11T19:03:17.240Z,3.80
2018-07-11T19:05:48.398Z,4.07
2018-07-11T19:08:28.257Z,3.77
2018-07-11T19:11:17.865Z,3.87
2018-07-11T19:13:49.288Z,3.63
2018-07-11T19:16:55.476Z,3.80
2018-07-11T19:19:34.520Z,4.23
2018-07-11T19:22:11.326Z,3.47
2018-07-11T19:24:50.699Z,3.73
2018-07-11T19:27:29.640Z,4.00
2018-07-11T19:30:08.241Z,3.90
2018-07-11T19:32:43.774Z,3.47
2018-07-11T19:35:20.393Z,3.80
2018-07-11T19:38:16.068Z,3.70
2018-07-11T19:40:48.364Z,3.60
2018-07-11T19:43:29.355Z,3.43
2018-07-11T19:46:24.447Z,3.90
2018-07-11T19:49:04.087Z,3.70
2018-07-11T19:51:39.789Z,3.37
2018-07-11T19:54:17.443Z,3.10
2018-07-11T19:56:47.745Z,3.70
2018-07-11T19:59:16.567Z,3.30
2018-07-11T20:01:45.717Z,3.13
2018-07-11T20:04:14.957Z,3.17
2018-07-11T20:06:43.690Z,3.43
2018-07-11T20:09:12.808Z,3.20
2018-07-11T20:11:41.533Z,3.40
2018-07-11T20:14:09.712Z,3.60
2018-07-11T20:16:37.836Z,3.27
2018-07-11T20:19:06.353Z,3.10
2018-07-11T20:21:34.778Z,3.13
2018-07-11T20:24:03.215Z,3.07
2018-07-11T20:29:05.482Z,3.13
2018-07-11T20:31:33.956Z,3.57
2018-07-11T20:34:02.425Z,3.70
2018-07-11T20:36:30.864Z,3.67
2018-07-11T20:38:59.390Z,4.20
2018-07-11T20:41:27.898Z,3.70
2018-07-11T20:43:56.397Z,3.80
2018-07-11T20:46:24.856Z,3.63
